Terminal Aerodrome Forecast
Issued by NWS

Home | Current Version | Previous Version | Text Only | Print | Product List | Glossary On
Versions: 1 2 3 4 5 6 7 8 9 10 11 12 13 14 15 16 17
000
FTUS43 KICT 290906 AAB
TAFSLN
TAF AMD
KSLN 290906Z 2909/3006 03011KT P6SM VCTS BKN080CB
      TEMPO 2909/2911 -TSRA BKN070CB
     FM291200 03011KT P6SM VCSH BKN080
     FM291800 07013KT P6SM VCSH BKN080=

USA.gov is the U.S. government's official web portal to all federal, state and local government web resources and services.